createdAt,value
2023-03-29T00:01:00.388Z,77.66
2023-03-29T00:06:06.043Z,77.62
2023-03-29T00:11:09.948Z,78.46
2023-03-29T00:16:14.171Z,79.10
2023-03-29T00:21:19.059Z,79.26
2023-03-29T00:26:22.520Z,79.52
2023-03-29T00:31:26.274Z,79.48
2023-03-29T00:36:31.751Z,79.72
2023-03-29T00:41:35.346Z,79.22
2023-03-29T00:46:38.840Z,79.11
2023-03-29T00:51:44.648Z,79.87
2023-03-29T00:56:52.523Z,79.29
2023-03-29T01:02:02.323Z,79.11
2023-03-29T01:07:13.605Z,79.24
2023-03-29T01:12:21.373Z,78.76
2023-03-29T01:17:25.618Z,78.62
2023-03-29T01:22:41.767Z,79.02
2023-03-29T01:27:54.954Z,78.42
2023-03-29T01:33:03.626Z,78.62
2023-03-29T01:38:13.453Z,78.60
2023-03-29T01:43:25.571Z,79.21
2023-03-29T01:48:33.798Z,79.21
2023-03-29T01:53:41.782Z,79.70
2023-03-29T01:58:52.696Z,79.66
2023-03-29T02:04:00.716Z,80.39
2023-03-29T02:09:04.961Z,80.75
2023-03-29T02:14:10.063Z,81.25
2023-03-29T02:19:15.472Z,81.45
2023-03-29T02:24:21.220Z,81.51
2023-03-29T02:29:26.606Z,81.46
2023-03-29T02:34:33.869Z,81.70
2023-03-29T02:39:39.682Z,81.66
2023-03-29T02:44:47.328Z,81.93
2023-03-29T02:49:51.877Z,81.87
2023-03-29T02:54:57.221Z,81.57
2023-03-29T03:00:13.428Z,81.75
2023-03-29T03:05:17.632Z,81.02
2023-03-29T03:10:21.078Z,80.46
2023-03-29T03:15:26.469Z,80.03
2023-03-29T03:20:31.221Z,79.61
2023-03-29T03:25:36.253Z,79.16
2023-03-29T03:30:41.175Z,79.49
2023-03-29T03:35:57.229Z,79.66
2023-03-29T03:41:01.498Z,80.00
2023-03-29T03:46:10.613Z,80.04
2023-03-29T03:51:14.475Z,80.10
2023-03-29T03:56:18.569Z,80.04
2023-03-29T04:01:43.599Z,80.88
2023-03-29T04:06:55.280Z,80.65
2023-03-29T04:12:12.901Z,80.59
2023-03-29T04:17:19.679Z,81.26
2023-03-29T04:22:31.669Z,80.88
2023-03-29T04:27:35.415Z,80.58
2023-03-29T04:32:44.739Z,80.53
2023-03-29T04:37:48.472Z,80.96
2023-03-29T04:42:54.516Z,81.26
2023-03-29T04:48:01.155Z,81.04
2023-03-29T04:53:04.996Z,80.92
2023-03-29T04:58:09.105Z,80.73
2023-03-29T05:03:17.066Z,80.37
2023-03-29T05:08:30.139Z,81.10
2023-03-29T05:13:44.925Z,81.20
2023-03-29T05:18:50.055Z,81.24
2023-03-29T05:23:54.706Z,80.67
2023-03-29T05:28:58.359Z,80.79
2023-03-29T05:34:04.495Z,80.22
2023-03-29T05:39:11.024Z,79.96
2023-03-29T05:44:14.789Z,80.26
2023-03-29T05:49:22.518Z,79.18
2023-03-29T05:54:35.485Z,79.87
2023-03-29T05:59:39.971Z,79.90
2023-03-29T06:04:45.470Z,78.00
2023-03-29T06:10:00.783Z,76.05
2023-03-29T06:15:05.145Z,77.39
2023-03-29T06:20:19.201Z,73.99
2023-03-29T06:25:28.418Z,75.52
2023-03-29T06:30:32.500Z,74.10
2023-03-29T06:35:39.123Z,73.79
2023-03-29T06:40:46.458Z,75.24
2023-03-29T06:45:50.120Z,73.61
2023-03-29T06:51:23.207Z,73.86
2023-03-29T06:56:27.442Z,72.83
2023-03-29T07:01:38.344Z,72.64
2023-03-29T07:07:02.645Z,72.49
2023-03-29T07:12:10.445Z,71.97
2023-03-29T07:17:14.147Z,69.08
2023-03-29T07:22:20.516Z,71.27
2023-03-29T07:27:28.845Z,72.33
2023-03-29T07:32:32.965Z,71.88
2023-03-29T07:37:56.509Z,72.82
2023-03-29T07:43:03.064Z,74.08
2023-03-29T07:48:08.825Z,73.59
2023-03-29T07:53:37.248Z,72.65
2023-03-29T07:58:47.784Z,71.44
2023-03-29T08:03:52.736Z,71.11
2023-03-29T08:09:01.799Z,70.47
2023-03-29T08:14:05.660Z,70.92
2023-03-29T08:19:30.734Z,74.99
2023-03-29T08:24:46.474Z,77.34
2023-03-29T08:29:50.681Z,80.40
2023-03-29T08:34:54.448Z,81.57
2023-03-29T08:40:04.218Z,82.94
2023-03-29T08:45:37.070Z,83.56
2023-03-29T08:50:48.075Z,83.92
2023-03-29T08:55:57.067Z,83.50
2023-03-29T09:01:18.783Z,82.61
2023-03-29T09:06:28.987Z,84.10
2023-03-29T09:12:07.466Z,85.75
2023-03-29T09:17:27.397Z,86.86
2023-03-29T09:22:41.598Z,87.26
2023-03-29T09:27:50.716Z,87.96
2023-03-29T09:33:05.608Z,87.39
2023-03-29T09:38:23.781Z,86.19
2023-03-29T09:43:33.291Z,85.59
2023-03-29T09:48:42.393Z,85.94
2023-03-29T09:53:47.197Z,85.02
2023-03-29T09:59:07.351Z,85.15
2023-03-29T10:04:12.467Z,84.74
2023-03-29T10:09:22.102Z,83.17
2023-03-29T10:14:35.185Z,81.94
2023-03-29T10:19:38.864Z,82.87
2023-03-29T10:24:48.385Z,83.88
2023-03-29T10:29:54.400Z,81.73
2023-03-29T10:35:06.002Z,82.45
2023-03-29T10:40:22.034Z,80.59
2023-03-29T10:45:29.891Z,80.93
2023-03-29T10:50:38.221Z,80.60
2023-03-29T10:55:54.615Z,79.39
2023-03-29T11:01:00.292Z,79.63
2023-03-29T11:06:11.257Z,79.78
2023-03-29T11:11:41.296Z,79.39
2023-03-29T11:16:55.932Z,80.14
2023-03-29T11:22:06.841Z,79.21
2023-03-29T11:27:20.902Z,77.34
2023-03-29T11:32:34.693Z,78.41
2023-03-29T11:37:46.740Z,80.86
2023-03-29T11:42:55.047Z,82.74
2023-03-29T11:48:03.188Z,82.00
2023-03-29T11:53:09.991Z,80.86
2023-03-29T11:58:19.872Z,79.58
2023-03-29T12:03:37.220Z,75.81
2023-03-29T12:08:46.886Z,71.85
2023-03-29T12:13:55.209Z,68.81
2023-03-29T12:19:06.060Z,66.93
2023-03-29T12:24:13.275Z,61.44
2023-03-29T12:29:33.923Z,63.24
2023-03-29T12:34:56.089Z,60.66
2023-03-29T12:40:27.592Z,61.65
2023-03-29T12:46:09.849Z,59.51
2023-03-29T12:51:17.605Z,62.58
2023-03-29T12:56:23.776Z,59.54
2023-03-29T13:01:30.126Z,63.48
2023-03-29T13:06:53.725Z,66.97
2023-03-29T13:12:00.816Z,76.63
2023-03-29T13:17:17.719Z,78.79
2023-03-29T13:22:35.749Z,79.50
2023-03-29T13:27:47.907Z,80.64
2023-03-29T13:33:05.612Z,80.13
2023-03-29T13:38:19.661Z,77.62
2023-03-29T13:43:32.734Z,76.40
2023-03-29T13:49:01.303Z,74.91
2023-03-29T13:54:15.002Z,71.43
2023-03-29T13:59:22.222Z,72.63
2023-03-29T14:04:28.824Z,69.71
2023-03-29T14:09:37.384Z,69.91
2023-03-29T14:14:59.510Z,68.46
2023-03-29T14:20:08.981Z,69.76
2023-03-29T14:25:18.534Z,67.67
2023-03-29T14:30:27.536Z,66.86
2023-03-29T14:35:33.974Z,66.37
2023-03-29T14:40:38.952Z,63.33
2023-03-29T14:45:42.683Z,65.02
2023-03-29T14:50:48.060Z,63.61
2023-03-29T14:55:55.647Z,64.60
2023-03-29T15:01:00.522Z,66.21
2023-03-29T15:06:05.938Z,66.73
2023-03-29T15:11:16.955Z,65.28
2023-03-29T15:16:22.949Z,65.54
2023-03-29T15:21:32.005Z,66.20
2023-03-29T15:26:40.870Z,68.24
2023-03-29T15:31:55.273Z,69.62
2023-03-29T15:36:59.462Z,68.87
2023-03-29T15:42:04.347Z,69.44
2023-03-29T15:47:12.146Z,70.10
2023-03-29T15:52:16.268Z,69.69
2023-03-29T15:57:21.975Z,70.31
2023-03-29T16:02:26.635Z,69.97
2023-03-29T16:07:30.318Z,70.23
2023-03-29T16:12:37.914Z,69.51
2023-03-29T16:17:41.775Z,68.96
2023-03-29T16:22:45.199Z,68.94
2023-03-29T16:27:52.871Z,69.11
2023-03-29T16:32:56.935Z,69.06
2023-03-29T16:38:00.541Z,68.83
2023-03-29T16:43:05.684Z,69.24
2023-03-29T16:48:13.316Z,70.20
2023-03-29T16:53:16.753Z,70.16
2023-03-29T16:58:23.265Z,70.13
2023-03-29T17:03:27.824Z,71.02
2023-03-29T17:08:31.561Z,71.54
2023-03-29T17:13:37.660Z,72.60
2023-03-29T17:18:41.410Z,72.91
2023-03-29T17:23:44.882Z,73.09
2023-03-29T17:28:49.727Z,73.34
2023-03-29T17:33:53.756Z,73.20
2023-03-29T17:38:57.710Z,72.96
2023-03-29T17:44:02.560Z,74.25
2023-03-29T17:49:06.828Z,74.34
2023-03-29T17:54:10.392Z,74.64
2023-03-29T17:59:15.326Z,74.31
2023-03-29T18:04:18.757Z,74.83
2023-03-29T18:09:22.213Z,75.11
2023-03-29T18:14:27.355Z,75.64
2023-03-29T18:19:31.763Z,76.05
2023-03-29T18:24:35.342Z,75.87
2023-03-29T18:29:40.824Z,75.63
2023-03-29T18:34:44.323Z,76.21
2023-03-29T18:39:48.132Z,75.90
2023-03-29T18:44:53.319Z,75.89
2023-03-29T18:49:57.838Z,75.75
2023-03-29T18:55:01.289Z,75.98
2023-03-29T19:00:12.636Z,75.78
2023-03-29T19:05:16.097Z,76.78
2023-03-29T19:10:20.260Z,76.39
2023-03-29T19:15:25.502Z,76.19
2023-03-29T19:20:30.036Z,76.24
2023-03-29T19:25:33.629Z,75.84
2023-03-29T19:30:38.769Z,76.01
2023-03-29T19:35:42.296Z,76.90
2023-03-29T19:40:46.710Z,77.25
2023-03-29T19:45:52.130Z,77.36
2023-03-29T19:50:55.579Z,76.80
2023-03-29T19:55:59.925Z,76.82
2023-03-29T20:01:05.249Z,77.17
2023-03-29T20:06:10.445Z,75.95
2023-03-29T20:11:15.981Z,75.83
2023-03-29T20:16:26.170Z,76.12
2023-03-29T20:21:30.076Z,76.38
2023-03-29T20:26:33.737Z,75.81
2023-03-29T20:31:38.680Z,76.54
2023-03-29T20:36:42.662Z,76.41
2023-03-29T20:41:47.928Z,75.70
2023-03-29T20:47:02.413Z,76.00
2023-03-29T20:52:08.470Z,75.79
2023-03-29T20:57:14.669Z,75.49
2023-03-29T21:02:21.929Z,76.22
2023-03-29T21:07:25.567Z,75.48
2023-03-29T21:12:29.014Z,76.00
2023-03-29T21:17:33.932Z,75.33
2023-03-29T21:22:37.689Z,75.70
2023-03-29T21:27:41.736Z,76.00
2023-03-29T21:32:46.634Z,75.89
2023-03-29T21:37:50.085Z,75.59
2023-03-29T21:42:53.445Z,75.84
2023-03-29T21:47:58.279Z,75.92
2023-03-29T21:53:02.130Z,75.64
2023-03-29T21:58:06.161Z,75.54
2023-03-29T22:03:11.338Z,75.29
2023-03-29T22:08:14.737Z,76.25
2023-03-29T22:13:18.540Z,76.12
2023-03-29T22:18:23.705Z,75.54
2023-03-29T22:23:27.824Z,75.91
2023-03-29T22:28:31.839Z,76.50
2023-03-29T22:33:37.558Z,76.61
2023-03-29T22:38:41.209Z,76.16
2023-03-29T22:43:44.924Z,76.19
2023-03-29T22:48:49.926Z,76.50
2023-03-29T22:53:53.473Z,76.28
2023-03-29T22:58:56.879Z,76.33
2023-03-29T23:04:02.018Z,76.22
2023-03-29T23:09:05.616Z,75.86
2023-03-29T23:14:09.614Z,75.70
2023-03-29T23:19:14.847Z,76.52
2023-03-29T23:24:19.177Z,76.86
2023-03-29T23:29:22.823Z,76.92
2023-03-29T23:34:27.705Z,76.86
2023-03-29T23:39:31.656Z,77.34
2023-03-29T23:44:35.008Z,77.84
2023-03-29T23:49:40.214Z,78.66
2023-03-29T23:54:43.707Z,78.35
2023-03-29T23:59:47.464Z,78.56
